Time;durP1;ratioP1;P1;durP2;ratioP2;P2;SDS_P1;SDS_P2;PMS_P1;PMS_P2;Temp;Humidity;BMP_temperature;BMP_pressure;BME280_temperature;BME280_humidity;BME280_pressure;Samples;Min_cycle;Max_cycle;Signal;HPM_P1;HPM_P2
2023/03/29 05:01:41;;;;;;;;;6.67;4.67;;;;;;;;5371990;23;46128;-59
2023/03/29 05:04:06;;;;;;;;;10.67;10.67;;;;;;;;5000765;28;45396;-59
2023/03/29 05:06:32;;;;;;;;;11.00;9.67;;;;;;;;4997820;28;45557;-60
2023/03/29 05:08:57;;;;;;;;;7.67;7.67;;;;;;;;4998667;28;45433;-61
2023/03/29 05:11:24;;;;;;;;;5.67;3.67;;;;;;;;4998477;28;45313;-59
2023/03/29 05:13:49;;;;;;;;;6.00;6.00;;;;;;;;4992912;28;45386;-59
2023/03/29 05:16:14;;;;;;;;;13.33;9.33;;;;;;;;4998449;28;46057;-59
2023/03/29 05:18:40;;;;;;;;;8.67;8.67;;;;;;;;4999096;28;45536;-58
2023/03/29 05:21:06;;;;;;;;;9.67;8.00;;;;;;;;5000110;28;45318;-59
2023/03/29 05:23:31;;;;;;;;;9.33;8.00;;;;;;;;4999392;28;45326;-59
2023/03/29 05:25:56;;;;;;;;;9.00;8.00;;;;;;;;4999345;28;47286;-59
2023/03/29 05:28:21;;;;;;;;;8.00;8.00;;;;;;;;5002628;28;45359;-59
2023/03/29 05:30:57;;;;;;;;;9.00;7.33;;;;;;;;4999639;28;45368;-59
2023/03/29 05:33:23;;;;;;;;;7.33;7.33;;;;;;;;4999195;28;45307;-59
2023/03/29 05:35:48;;;;;;;;;8.33;8.33;;;;;;;;4999453;28;45337;-59
2023/03/29 05:38:14;;;;;;;;;11.67;8.00;;;;;;;;5010880;28;45717;-59
2023/03/29 05:40:40;;;;;;;;;12.33;10.67;;;;;;;;4999227;28;45362;-59
2023/03/29 05:43:05;;;;;;;;;8.00;7.33;;;;;;;;4998494;28;45533;-58
2023/03/29 05:45:32;;;;;;;;;8.33;7.00;;;;;;;;4980061;28;47696;-59
2023/03/29 05:47:57;;;;;;;;;13.00;11.00;;;;;;;;4998554;28;45525;-59
2023/03/29 05:50:22;;;;;;;;;9.00;9.00;;;;;;;;4999062;28;45588;-59
2023/03/29 05:52:47;;;;;;;;;7.33;7.33;;;;;;;;4998862;28;45295;-59
2023/03/29 05:55:13;;;;;;;;;11.00;7.00;;;;;;;;4997990;28;45483;-59
2023/03/29 05:57:38;;;;;;;;;8.00;7.00;;;;;;;;4980001;28;45402;-59
2023/03/29 06:00:14;;;;;;;;;7.33;6.00;;;;;;;;4997523;28;45765;-59
2023/03/29 06:02:40;;;;;;;;;5.67;5.33;;;;;;;;4998821;28;45480;-59
2023/03/29 06:05:05;;;;;;;;;6.00;6.00;;;;;;;;4997515;28;46777;-60
2023/03/29 06:07:31;;;;;;;;;5.33;5.33;;;;;;;;4997704;28;45328;-59
2023/03/29 06:09:56;;;;;;;;;7.67;7.00;;;;;;;;4998496;28;45808;-59
2023/03/29 06:12:23;;;;;;;;;9.67;8.00;;;;;;;;4998145;28;45679;-59
2023/03/29 06:14:48;;;;;;;;;7.33;7.00;;;;;;;;4997813;28;45675;-59
2023/03/29 06:17:14;;;;;;;;;9.00;6.33;;;;;;;;4979833;28;45757;-59
2023/03/29 06:19:39;;;;;;;;;6.00;6.00;;;;;;;;4998682;28;45554;-58
2023/03/29 06:22:04;;;;;;;;;7.67;7.00;;;;;;;;4997847;28;45381;-62
2023/03/29 06:24:29;;;;;;;;;6.00;5.00;;;;;;;;4997328;28;45270;-62
2023/03/29 06:26:55;;;;;;;;;7.67;7.00;;;;;;;;4998230;28;45313;-62
2023/03/29 06:29:20;;;;;;;;;7.00;5.00;;;;;;;;4997979;28;45461;-62
2023/03/29 06:31:46;;;;;;;;;10.67;7.33;;;;;;;;4978777;28;45251;-62
2023/03/29 06:34:12;;;;;;;;;6.33;6.33;;;;;;;;4994334;28;45963;-63
2023/03/29 06:36:37;;;;;;;;;11.00;6.33;;;;;;;;4997975;28;45426;-63
2023/03/29 06:39:03;;;;;;;;;5.00;3.33;;;;;;;;4997398;28;45551;-63
2023/03/29 06:41:28;;;;;;;;;6.67;5.67;;;;;;;;4997485;28;45480;-63
2023/03/29 06:43:53;;;;;;;;;7.67;6.00;;;;;;;;4997463;28;46157;-62
2023/03/29 06:46:19;;;;;;;;;8.67;7.33;;;;;;;;4996494;28;45832;-62
2023/03/29 06:48:44;;;;;;;;;9.00;6.67;;;;;;;;4998206;28;45380;-61
2023/03/29 06:51:10;;;;;;;;;6.00;5.67;;;;;;;;4990085;28;45887;-63
2023/03/29 06:53:35;;;;;;;;;5.00;5.00;;;;;;;;4997962;28;46129;-63
2023/03/29 06:56:04;;;;;;;;;8.00;7.00;;;;;;;;4997057;28;45457;-63
2023/03/29 06:58:29;;;;;;;;;6.33;6.33;;;;;;;;4992793;28;45328;-63
2023/03/29 07:00:59;;;;;;;;;6.00;5.00;;;;;;;;4976243;28;45554;-63
2023/03/29 07:03:24;;;;;;;;;6.00;6.00;;;;;;;;4996657;28;46233;-63
2023/03/29 07:05:50;;;;;;;;;4.67;4.67;;;;;;;;4998153;28;45369;-63
2023/03/29 07:08:17;;;;;;;;;8.67;6.00;;;;;;;;4998248;28;45345;-63
2023/03/29 07:10:44;;;;;;;;;8.00;7.00;;;;;;;;4992006;28;45554;-63
2023/03/29 07:13:13;;;;;;;;;6.33;6.33;;;;;;;;4991917;28;46133;-63
2023/03/29 07:15:39;;;;;;;;;10.67;8.00;;;;;;;;4993182;28;45358;-63
2023/03/29 07:18:05;;;;;;;;;7.00;7.00;;;;;;;;4990704;28;45842;-62
2023/03/29 07:20:30;;;;;;;;;9.67;7.00;;;;;;;;4996316;28;45424;-63
2023/03/29 07:22:56;;;;;;;;;9.00;7.00;;;;;;;;4996894;28;45421;-62
2023/03/29 07:25:22;;;;;;;;;8.00;6.00;;;;;;;;4996757;28;45694;-62
2023/03/29 07:27:47;;;;;;;;;10.33;6.00;;;;;;;;4994156;28;45569;-63
2023/03/29 07:30:15;;;;;;;;;7.00;7.00;;;;;;;;4989953;28;45657;-63
2023/03/29 07:32:41;;;;;;;;;9.67;7.00;;;;;;;;4996510;28;47202;-63
2023/03/29 07:35:07;;;;;;;;;7.67;7.67;;;;;;;;4994987;28;46026;-63
2023/03/29 07:37:34;;;;;;;;;10.00;8.00;;;;;;;;4995064;28;45564;-66
2023/03/29 07:40:00;;;;;;;;;7.67;7.33;;;;;;;;4992070;28;45603;-66
2023/03/29 07:42:26;;;;;;;;;11.00;5.00;;;;;;;;4994453;28;46085;-66
2023/03/29 07:44:53;;;;;;;;;9.33;8.00;;;;;;;;4999327;28;45298;-66
2023/03/29 07:47:18;;;;;;;;;8.33;7.67;;;;;;;;4998391;28;45519;-66
2023/03/29 07:49:43;;;;;;;;;14.33;9.33;;;;;;;;5000065;28;45554;-66
2023/03/29 07:52:08;;;;;;;;;9.00;7.33;;;;;;;;4994942;28;45403;-66
2023/03/29 07:54:34;;;;;;;;;10.67;7.33;;;;;;;;4992879;28;45214;-66
2023/03/29 07:56:59;;;;;;;;;5.67;5.67;;;;;;;;4999690;28;45358;-67
2023/03/29 07:59:24;;;;;;;;;7.67;7.67;;;;;;;;4997837;28;45573;-66
2023/03/29 08:01:50;;;;;;;;;8.33;6.67;;;;;;;;4999071;28;46577;-68
2023/03/29 08:04:16;;;;;;;;;7.00;5.67;;;;;;;;4978421;28;45700;-67
2023/03/29 08:06:42;;;;;;;;;9.00;7.67;;;;;;;;4992530;28;45536;-67
2023/03/29 08:09:07;;;;;;;;;6.33;6.33;;;;;;;;4998803;28;45622;-67
2023/03/29 08:11:33;;;;;;;;;9.33;5.67;;;;;;;;4998526;28;45522;-67
2023/03/29 08:13:58;;;;;;;;;6.00;6.00;;;;;;;;4998805;28;45472;-67
2023/03/29 08:16:23;;;;;;;;;4.67;4.67;;;;;;;;4981149;28;45475;-67
2023/03/29 08:18:48;;;;;;;;;7.00;6.00;;;;;;;;4999070;28;45500;-67
2023/03/29 08:21:14;;;;;;;;;13.67;9.00;;;;;;;;4978265;28;47274;-67
2023/03/29 08:23:40;;;;;;;;;9.67;6.67;;;;;;;;4997843;28;45589;-68
2023/03/29 08:26:07;;;;;;;;;5.67;5.00;;;;;;;;4998985;28;45474;-68
2023/03/29 08:28:32;;;;;;;;;8.00;6.33;;;;;;;;4998073;28;45707;-68
2023/03/29 08:30:57;;;;;;;;;5.33;4.00;;;;;;;;4998430;28;46504;-69
2023/03/29 08:33:23;;;;;;;;;5.67;4.00;;;;;;;;4979639;28;45600;-68
2023/03/29 08:35:48;;;;;;;;;11.33;6.33;;;;;;;;4998848;28;45491;-68
2023/03/29 08:38:14;;;;;;;;;5.67;5.00;;;;;;;;4980940;28;45712;-68
2023/03/29 08:40:39;;;;;;;;;6.67;5.67;;;;;;;;4995571;28;46338;-68
2023/03/29 08:43:19;;;;;;;;;6.00;6.00;;;;;;;;4980706;28;45417;-68
2023/03/29 08:45:54;;;;;;;;;7.67;7.00;;;;;;;;4978921;28;45485;-69
2023/03/29 08:48:22;;;;;;;;;5.00;5.00;;;;;;;;4980158;28;45439;-68
2023/03/29 08:50:51;;;;;;;;;6.33;5.00;;;;;;;;4999113;28;45412;-69
2023/03/29 08:53:23;;;;;;;;;8.00;5.00;;;;;;;;4997640;28;45308;-68
2023/03/29 08:55:49;;;;;;;;;5.33;5.33;;;;;;;;4995362;28;45598;-68
2023/03/29 08:58:17;;;;;;;;;4.33;4.33;;;;;;;;4998363;28;45284;-68
2023/03/29 09:00:45;;;;;;;;;4.33;4.00;;;;;;;;4980582;28;47344;-68
2023/03/29 09:03:18;;;;;;;;;6.00;3.67;;;;;;;;4997760;28;45409;-68
2023/03/29 09:05:46;;;;;;;;;4.67;4.67;;;;;;;;4993276;28;45373;-68
2023/03/29 09:08:12;;;;;;;;;6.00;4.00;;;;;;;;4998656;28;45440;-68
2023/03/29 09:10:46;;;;;;;;;5.33;5.33;;;;;;;;4979323;28;46166;-68
2023/03/29 09:13:30;;;;;;;;;6.33;5.00;;;;;;;;4998104;28;45497;-68
2023/03/29 09:16:02;;;;;;;;;4.00;4.00;;;;;;;;4978707;28;45652;-68
2023/03/29 09:18:36;;;;;;;;;4.00;4.00;;;;;;;;4981409;28;45435;-69
2023/03/29 09:21:10;;;;;;;;;4.00;4.00;;;;;;;;4994468;28;45472;-68
2023/03/29 09:24:02;;;;;;;;;4.00;4.00;;;;;;;;4989276;28;45480;-68
2023/03/29 09:26:33;;;;;;;;;11.33;9.33;;;;;;;;4995412;28;45404;-69
2023/03/29 09:29:08;;;;;;;;;3.67;3.67;;;;;;;;4981482;28;45597;-69
2023/03/29 09:31:36;;;;;;;;;5.67;4.00;;;;;;;;4998176;28;45484;-68
2023/03/29 09:34:10;;;;;;;;;6.00;5.67;;;;;;;;4995334;28;45495;-68
2023/03/29 09:36:35;;;;;;;;;5.33;5.00;;;;;;;;4977672;28;45477;-69
2023/03/29 09:39:02;;;;;;;;;4.67;4.67;;;;;;;;4980540;28;45308;-69
2023/03/29 09:41:42;;;;;;;;;7.67;6.33;;;;;;;;4986627;28;46814;-69
2023/03/29 09:44:10;;;;;;;;;6.00;3.00;;;;;;;;4993766;28;45491;-68
2023/03/29 09:46:40;;;;;;;;;5.00;4.67;;;;;;;;4974878;28;45469;-71
2023/03/29 09:49:09;;;;;;;;;5.00;5.00;;;;;;;;4997552;28;45575;-69
2023/03/29 09:51:36;;;;;;;;;6.33;5.00;;;;;;;;4996490;28;46188;-69
2023/03/29 09:54:02;;;;;;;;;3.00;1.33;;;;;;;;4997606;28;45525;-69
2023/03/29 09:56:27;;;;;;;;;7.00;4.67;;;;;;;;4980803;28;45365;-67
2023/03/29 09:58:52;;;;;;;;;4.00;4.00;;;;;;;;4998448;28;45319;-66
2023/03/29 10:01:18;;;;;;;;;6.33;4.33;;;;;;;;4997181;28;45522;-67
2023/03/29 10:03:47;;;;;;;;;6.25;4.00;;;;;;;;4997376;28;45276;-68
2023/03/29 10:06:13;;;;;;;;;3.00;3.00;;;;;;;;4992694;28;45551;-68
2023/03/29 10:08:40;;;;;;;;;3.00;3.00;;;;;;;;4998229;28;45449;-68
2023/03/29 10:11:08;;;;;;;;;2.75;2.75;;;;;;;;4997187;28;45361;-68
2023/03/29 10:13:34;;;;;;;;;4.50;3.50;;;;;;;;4997201;28;45428;-68
2023/03/29 10:16:04;;;;;;;;;4.00;3.00;;;;;;;;4978635;28;45719;-68
2023/03/29 10:18:31;;;;;;;;;5.00;4.00;;;;;;;;4992396;28;45524;-67
2023/03/29 10:21:02;;;;;;;;;5.00;4.25;;;;;;;;4976862;28;48392;-68
2023/03/29 10:23:32;;;;;;;;;7.00;4.00;;;;;;;;4978971;28;45675;-68
2023/03/29 10:25:57;;;;;;;;;6.67;3.67;;;;;;;;4983723;28;45503;-68
2023/03/29 10:28:25;;;;;;;;;4.00;4.00;;;;;;;;4992734;28;45452;-68
2023/03/29 10:30:54;;;;;;;;;5.00;3.75;;;;;;;;4988300;28;46157;-69
2023/03/29 10:33:21;;;;;;;;;6.00;4.25;;;;;;;;4995459;28;45377;-69
2023/03/29 10:35:47;;;;;;;;;5.00;5.00;;;;;;;;4992745;28;45584;-68
2023/03/29 10:38:15;;;;;;;;;3.25;3.25;;;;;;;;4994403;28;45534;-69
2023/03/29 10:40:47;;;;;;;;;4.00;4.00;;;;;;;;4987362;28;45511;-69
2023/03/29 10:43:18;;;;;;;;;1.50;1.00;;;;;;;;4989330;28;45558;-69
2023/03/29 10:45:46;;;;;;;;;4.25;4.25;;;;;;;;4973243;28;45679;-68
2023/03/29 10:48:13;;;;;;;;;5.00;3.00;;;;;;;;4997496;28;45709;-69
2023/03/29 10:50:38;;;;;;;;;3.75;3.25;;;;;;;;4997249;28;46627;-69
2023/03/29 10:53:08;;;;;;;;;5.25;4.00;;;;;;;;4997403;28;45455;-69
2023/03/29 10:55:36;;;;;;;;;3.00;2.00;;;;;;;;4996444;28;45571;-69
2023/03/29 10:58:28;;;;;;;;;4.25;1.75;;;;;;;;4978896;28;45840;-69
2023/03/29 11:00:57;;;;;;;;;4.00;3.25;;;;;;;;4979295;28;46672;-74
2023/03/29 11:03:48;;;;;;;;;6.00;3.00;;;;;;;;4976673;28;45716;-75
2023/03/29 11:06:14;;;;;;;;;2.25;2.25;;;;;;;;4972371;28;45300;-75
2023/03/29 11:08:39;;;;;;;;;4.50;4.50;;;;;;;;4986394;28;45467;-75
2023/03/29 11:11:05;;;;;;;;;3.75;2.75;;;;;;;;4990559;28;45985;-75
2023/03/29 11:13:39;;;;;;;;;4.50;4.00;;;;;;;;4997775;28;45428;-76
2023/03/29 11:16:11;;;;;;;;;2.75;2.75;;;;;;;;4991735;28;45436;-75
2023/03/29 11:18:55;;;;;;;;;4.50;2.25;;;;;;;;4999619;28;45767;-78
2023/03/29 11:21:20;;;;;;;;;3.00;1.25;;;;;;;;4995789;28;46501;-77
2023/03/29 11:23:46;;;;;;;;;3.50;2.25;;;;;;;;4993830;28;45791;-78
2023/03/29 11:26:22;;;;;;;;;3.00;1.00;;;;;;;;4998659;28;45429;-77
2023/03/29 11:29:01;;;;;;;;;5.75;3.25;;;;;;;;4980594;28;45497;-79
2023/03/29 11:31:45;;;;;;;;;3.50;2.75;;;;;;;;4999828;28;46277;-78
2023/03/29 11:34:29;;;;;;;;;5.00;2.00;;;;;;;;4992137;28;45523;-78
2023/03/29 11:36:57;;;;;;;;;4.00;1.00;;;;;;;;4998076;28;45577;-78
2023/03/29 11:39:23;;;;;;;;;2.50;2.00;;;;;;;;4994535;28;45300;-78
2023/03/29 11:41:51;;;;;;;;;0.00;0.00;;;;;;;;4994854;28;45369;-79
2023/03/29 11:44:23;;;;;;;;;3.00;2.00;;;;;;;;4999577;28;45457;-78
2023/03/29 11:47:07;;;;;;;;;2.00;2.00;;;;;;;;4993396;28;45776;-79
2023/03/29 11:49:37;;;;;;;;;3.00;2.00;;;;;;;;4982649;28;45576;-78
2023/03/29 11:52:17;;;;;;;;;2.00;2.00;;;;;;;;4987863;28;45529;-78
2023/03/29 11:54:49;;;;;;;;;3.00;3.00;;;;;;;;4991552;28;45511;-77
2023/03/29 11:57:20;;;;;;;;;4.00;4.00;;;;;;;;4985367;28;45361;-78
2023/03/29 11:59:53;;;;;;;;;3.75;2.00;;;;;;;;4992322;28;45395;-78
2023/03/29 12:02:30;;;;;;;;;2.00;2.00;;;;;;;;4997462;28;45585;-78
2023/03/29 12:04:58;;;;;;;;;0.50;0.50;;;;;;;;4994177;28;45407;-78
2023/03/29 12:07:28;;;;;;;;;3.50;3.50;;;;;;;;4993463;28;45489;-78
2023/03/29 12:10:13;;;;;;;;;1.75;1.25;;;;;;;;4997879;28;45464;-71
2023/03/29 12:12:48;;;;;;;;;6.00;2.00;;;;;;;;4990461;28;46781;-69
2023/03/29 12:15:19;;;;;;;;;2.75;1.50;;;;;;;;4995421;28;45549;-68
2023/03/29 12:17:56;;;;;;;;;2.75;2.00;;;;;;;;4989820;28;45393;-69
2023/03/29 12:20:25;;;;;;;;;2.00;2.00;;;;;;;;4994446;28;45420;-68
2023/03/29 12:22:51;;;;;;;;;3.50;2.00;;;;;;;;4998303;28;46661;-68
2023/03/29 12:25:23;;;;;;;;;3.50;3.00;;;;;;;;4996578;28;45465;-68
2023/03/29 12:27:58;;;;;;;;;4.00;2.75;;;;;;;;4998669;28;45556;-68
2023/03/29 12:30:42;;;;;;;;;2.00;2.00;;;;;;;;4997245;28;45476;-68
2023/03/29 12:33:26;;;;;;;;;2.50;1.50;;;;;;;;4997481;28;46493;-68
2023/03/29 12:36:10;;;;;;;;;4.00;3.00;;;;;;;;4999030;28;45689;-67
2023/03/29 12:38:36;;;;;;;;;3.00;1.25;;;;;;;;4976460;28;45629;-68
2023/03/29 12:41:09;;;;;;;;;1.25;1.25;;;;;;;;4996763;28;45409;-68
2023/03/29 12:43:39;;;;;;;;;2.00;2.00;;;;;;;;4997589;28;46223;-68
2023/03/29 12:46:09;;;;;;;;;2.00;2.00;;;;;;;;4997415;28;45414;-68
2023/03/29 12:48:36;;;;;;;;;2.00;1.00;;;;;;;;4995627;28;45499;-71
2023/03/29 12:51:13;;;;;;;;;1.00;1.00;;;;;;;;4997251;28;45472;-71
2023/03/29 12:53:43;;;;;;;;;0.25;0.25;;;;;;;;4993810;28;45360;-71
2023/03/29 12:56:12;;;;;;;;;3.00;3.00;;;;;;;;4981739;28;45520;-71
2023/03/29 12:58:37;;;;;;;;;3.00;3.00;;;;;;;;4997505;28;45578;-70
2023/03/29 13:01:04;;;;;;;;;2.00;1.00;;;;;;;;4996756;28;45449;-71
2023/03/29 13:03:38;;;;;;;;;1.50;1.00;;;;;;;;4998070;28;47532;-71
2023/03/29 13:06:08;;;;;;;;;3.50;2.75;;;;;;;;4997254;28;45441;-71
2023/03/29 13:08:36;;;;;;;;;3.25;2.00;;;;;;;;4998800;28;45762;-70
2023/03/29 13:11:02;;;;;;;;;2.00;2.00;;;;;;;;4992492;28;45373;-71
2023/03/29 13:13:38;;;;;;;;;2.00;2.00;;;;;;;;4991712;28;45518;-71
2023/03/29 13:16:14;;;;;;;;;1.50;1.50;;;;;;;;4992863;28;45479;-71
2023/03/29 13:18:48;;;;;;;;;3.00;1.75;;;;;;;;4991582;28;45487;-71
2023/03/29 13:21:14;;;;;;;;;2.00;2.00;;;;;;;;4988279;28;45629;-71
2023/03/29 13:24:04;;;;;;;;;2.50;1.00;;;;;;;;4997361;28;45226;-72
2023/03/29 13:26:56;;;;;;;;;2.00;2.00;;;;;;;;4976590;28;46111;-72
2023/03/29 13:29:42;;;;;;;;;2.00;2.00;;;;;;;;4963449;28;45287;-72
2023/03/29 13:32:10;;;;;;;;;3.75;2.00;;;;;;;;4995071;28;45440;-72
2023/03/29 13:34:36;;;;;;;;;4.00;3.00;;;;;;;;4998186;28;46320;-71
2023/03/29 13:37:02;;;;;;;;;2.00;2.00;;;;;;;;4978409;28;45374;-71
2023/03/29 13:39:29;;;;;;;;;2.25;2.25;;;;;;;;4997843;28;45413;-72
2023/03/29 13:42:05;;;;;;;;;3.00;2.00;;;;;;;;4996306;28;45358;-70
2023/03/29 13:44:42;;;;;;;;;3.75;3.00;;;;;;;;4995667;28;45428;-72
2023/03/29 13:47:13;;;;;;;;;2.25;2.25;;;;;;;;4995300;28;45790;-71
2023/03/29 13:49:41;;;;;;;;;2.00;2.00;;;;;;;;4980910;28;45353;-72
2023/03/29 13:52:14;;;;;;;;;4.25;2.00;;;;;;;;4979712;28;45446;-71
2023/03/29 13:54:46;;;;;;;;;2.50;1.75;;;;;;;;4998300;28;46170;-72
2023/03/29 13:57:17;;;;;;;;;3.00;2.50;;;;;;;;4979127;28;45399;-71
2023/03/29 13:59:49;;;;;;;;;2.00;2.00;;;;;;;;4998478;28;45378;-73
2023/03/29 14:02:29;;;;;;;;;1.25;1.00;;;;;;;;4979959;28;45562;-72
2023/03/29 14:04:55;;;;;;;;;4.50;2.75;;;;;;;;4976882;28;46758;-71
2023/03/29 14:07:25;;;;;;;;;2.33;2.00;;;;;;;;4986278;28;45374;-71
2023/03/29 14:09:52;;;;;;;;;2.00;2.00;;;;;;;;4997223;28;45384;-68
2023/03/29 14:12:17;;;;;;;;;4.00;2.67;;;;;;;;4976516;28;45993;-65
2023/03/29 14:14:44;;;;;;;;;3.67;2.00;;;;;;;;4978064;28;47917;-62
2023/03/29 14:17:18;;;;;;;;;4.00;3.33;;;;;;;;4971167;28;45478;-59
2023/03/29 14:19:43;;;;;;;;;3.00;3.00;;;;;;;;4994787;28;45429;-59
2023/03/29 14:22:12;;;;;;;;;2.50;2.50;;;;;;;;4997444;28;45478;-59
2023/03/29 14:24:39;;;;;;;;;2.00;2.00;;;;;;;;4998251;28;45306;-59
2023/03/29 14:27:06;;;;;;;;;3.00;3.00;;;;;;;;4998170;28;45343;-59
2023/03/29 14:29:32;;;;;;;;;2.00;2.00;;;;;;;;4998782;28;45306;-59
2023/03/29 14:32:07;;;;;;;;;3.75;2.00;;;;;;;;4998649;28;45250;-59
2023/03/29 14:34:32;;;;;;;;;3.00;3.00;;;;;;;;4998725;28;47390;-59
2023/03/29 14:36:58;;;;;;;;;3.00;3.00;;;;;;;;4999179;28;45491;-59
2023/03/29 14:39:23;;;;;;;;;4.00;2.00;;;;;;;;4993125;28;45362;-59
2023/03/29 14:41:51;;;;;;;;;3.00;3.00;;;;;;;;4999017;28;45299;-59
2023/03/29 14:44:18;;;;;;;;;4.00;2.00;;;;;;;;4998225;28;46370;-59
2023/03/29 14:46:43;;;;;;;;;2.25;2.25;;;;;;;;4980645;28;45425;-59
2023/03/29 14:49:11;;;;;;;;;3.67;3.67;;;;;;;;4998453;28;45270;-61
2023/03/29 14:51:39;;;;;;;;;4.00;3.33;;;;;;;;4999705;28;45479;-59
2023/03/29 14:54:05;;;;;;;;;3.00;1.67;;;;;;;;5001662;28;46462;-59
2023/03/29 14:56:31;;;;;;;;;4.00;2.50;;;;;;;;4986462;28;45425;-59
2023/03/29 14:58:57;;;;;;;;;3.67;2.00;;;;;;;;5008309;28;45358;-59
2023/03/29 15:01:24;;;;;;;;;1.67;1.67;;;;;;;;5000915;28;45546;-59
2023/03/29 15:04:04;;;;;;;;;1.00;1.00;;;;;;;;4995258;28;46200;-59
2023/03/29 15:06:30;;;;;;;;;3.67;2.33;;;;;;;;4997316;28;45397;-59
2023/03/29 15:08:59;;;;;;;;;2.00;2.00;;;;;;;;5001773;28;45351;-59
2023/03/29 15:11:27;;;;;;;;;3.33;3.33;;;;;;;;5008315;28;45420;-59
2023/03/29 15:14:03;;;;;;;;;1.00;1.00;;;;;;;;5004275;28;45593;-59
2023/03/29 15:16:29;;;;;;;;;2.00;2.00;;;;;;;;5006566;28;45331;-59
2023/03/29 15:18:55;;;;;;;;;3.00;3.00;;;;;;;;5005881;28;45411;-59
2023/03/29 15:21:21;;;;;;;;;3.00;3.00;;;;;;;;5016169;28;45561;-59
2023/03/29 15:23:49;;;;;;;;;2.00;2.00;;;;;;;;4997757;28;47976;-59
2023/03/29 15:26:20;;;;;;;;;5.33;2.67;;;;;;;;5015174;28;45500;-58
2023/03/29 15:28:47;;;;;;;;;5.00;3.33;;;;;;;;5011100;28;45345;-58
2023/03/29 15:31:13;;;;;;;;;3.00;3.00;;;;;;;;5011193;28;45271;-59
2023/03/29 15:33:40;;;;;;;;;3.33;2.67;;;;;;;;5011644;28;45375;-59
2023/03/29 15:36:06;;;;;;;;;3.67;3.00;;;;;;;;5011804;28;45225;-59
2023/03/29 15:38:32;;;;;;;;;2.00;2.00;;;;;;;;5011930;28;45301;-59
2023/03/29 15:40:58;;;;;;;;;3.75;3.75;;;;;;;;5000914;28;45442;-59
2023/03/29 15:43:23;;;;;;;;;3.75;3.75;;;;;;;;5000582;28;46040;-59
2023/03/29 15:45:48;;;;;;;;;2.25;2.25;;;;;;;;5008029;28;45458;-58
2023/03/29 15:48:15;;;;;;;;;2.33;2.00;;;;;;;;5011516;28;45673;-59
2023/03/29 15:50:42;;;;;;;;;3.00;2.00;;;;;;;;5000741;28;45327;-59
2023/03/29 15:53:07;;;;;;;;;2.00;2.00;;;;;;;;5008081;28;46257;-59
2023/03/29 15:55:32;;;;;;;;;1.25;1.25;;;;;;;;5004122;28;45302;-59
2023/03/29 15:57:57;;;;;;;;;5.00;3.25;;;;;;;;5014016;28;45426;-59
2023/03/29 16:00:23;;;;;;;;;5.50;3.00;;;;;;;;5012785;28;45412;-59
2023/03/29 16:02:50;;;;;;;;;2.00;2.00;;;;;;;;5004464;28;45314;-59
2023/03/29 16:05:15;;;;;;;;;3.00;3.00;;;;;;;;4991808;28;45588;-59
2023/03/29 16:07:40;;;;;;;;;2.33;2.00;;;;;;;;4995052;28;46647;-59
2023/03/29 16:10:06;;;;;;;;;5.67;5.67;;;;;;;;4994531;28;45278;-59
2023/03/29 16:12:31;;;;;;;;;5.00;2.67;;;;;;;;4996069;28;45554;-59
2023/03/29 16:14:56;;;;;;;;;5.25;2.25;;;;;;;;4992175;28;45346;-59
2023/03/29 16:17:21;;;;;;;;;3.67;2.00;;;;;;;;4998593;28;45448;-59
2023/03/29 16:19:46;;;;;;;;;6.67;2.67;;;;;;;;4998869;28;45478;-59
2023/03/29 16:22:12;;;;;;;;;1.00;1.00;;;;;;;;4997057;28;46202;-59
2023/03/29 16:24:37;;;;;;;;;4.00;4.00;;;;;;;;4999413;28;45238;-59
2023/03/29 16:27:02;;;;;;;;;4.25;3.50;;;;;;;;4997093;28;45434;-59
2023/03/29 16:29:28;;;;;;;;;5.33;4.00;;;;;;;;4999215;28;45444;-59
2023/03/29 16:31:53;;;;;;;;;0.00;0.00;;;;;;;;4998470;28;45423;-59
2023/03/29 16:34:19;;;;;;;;;2.00;2.00;;;;;;;;4998619;28;45396;-59
2023/03/29 16:36:47;;;;;;;;;3.33;3.00;;;;;;;;4995385;28;45599;-59
2023/03/29 16:39:13;;;;;;;;;3.33;3.33;;;;;;;;4998610;28;45468;-59
2023/03/29 16:41:39;;;;;;;;;4.00;3.00;;;;;;;;4997438;28;45354;-59
2023/03/29 16:44:05;;;;;;;;;3.00;2.00;;;;;;;;4999123;28;45553;-59
2023/03/29 16:46:31;;;;;;;;;2.00;2.00;;;;;;;;4997755;28;45387;-61
2023/03/29 16:48:56;;;;;;;;;3.00;3.00;;;;;;;;4997684;28;45523;-59
2023/03/29 16:51:22;;;;;;;;;5.00;3.00;;;;;;;;4998613;28;47522;-59
2023/03/29 16:53:48;;;;;;;;;2.00;2.00;;;;;;;;4999451;28;45430;-58
2023/03/29 16:56:13;;;;;;;;;4.00;2.25;;;;;;;;4998275;28;45448;-59
2023/03/29 16:58:39;;;;;;;;;4.33;2.00;;;;;;;;5001496;28;45480;-60
2023/03/29 17:01:07;;;;;;;;;2.67;2.67;;;;;;;;4998389;28;46478;-60
2023/03/29 17:03:32;;;;;;;;;4.00;2.67;;;;;;;;4999041;28;44825;-60
2023/03/29 17:05:58;;;;;;;;;4.33;3.67;;;;;;;;4981983;28;45309;-60
2023/03/29 17:08:23;;;;;;;;;3.00;3.00;;;;;;;;4998678;28;45330;-60
2023/03/29 17:10:52;;;;;;;;;6.00;4.00;;;;;;;;4998709;28;45673;-60
2023/03/29 17:13:17;;;;;;;;;3.33;2.33;;;;;;;;4998638;28;45497;-60
2023/03/29 17:15:42;;;;;;;;;3.00;3.00;;;;;;;;4998897;28;45434;-60
2023/03/29 17:18:08;;;;;;;;;3.67;2.33;;;;;;;;5003184;28;46089;-58
2023/03/29 17:20:33;;;;;;;;;5.00;3.67;;;;;;;;4993166;28;45756;-61
2023/03/29 17:22:58;;;;;;;;;3.00;3.00;;;;;;;;4998305;28;45315;-61
2023/03/29 17:25:24;;;;;;;;;2.67;1.33;;;;;;;;4997734;28;45889;-59
2023/03/29 17:27:50;;;;;;;;;3.00;3.00;;;;;;;;4998788;28;45368;-62
2023/03/29 17:30:15;;;;;;;;;4.00;2.00;;;;;;;;4980533;28;45504;-62
2023/03/29 17:32:41;;;;;;;;;3.00;3.00;;;;;;;;4996713;28;45294;-62
2023/03/29 17:35:07;;;;;;;;;3.33;2.33;;;;;;;;4981631;28;45422;-62
2023/03/29 17:37:33;;;;;;;;;6.00;4.00;;;;;;;;4994288;28;45457;-62
2023/03/29 17:39:58;;;;;;;;;5.00;4.00;;;;;;;;5000883;28;46172;-63
2023/03/29 17:42:24;;;;;;;;;4.00;3.00;;;;;;;;4980935;28;45242;-62
2023/03/29 17:44:49;;;;;;;;;3.00;3.00;;;;;;;;4982005;28;45615;-62
2023/03/29 17:47:15;;;;;;;;;3.00;3.00;;;;;;;;4998501;28;45599;-62
2023/03/29 17:49:40;;;;;;;;;3.33;3.00;;;;;;;;4981567;28;46293;-61
2023/03/29 17:52:05;;;;;;;;;3.00;3.00;;;;;;;;4992516;28;45441;-61
2023/03/29 17:54:31;;;;;;;;;4.67;4.00;;;;;;;;4994988;28;45420;-62
2023/03/29 17:56:56;;;;;;;;;3.00;3.00;;;;;;;;4998513;28;45305;-61
2023/03/29 17:59:21;;;;;;;;;3.00;3.00;;;;;;;;4998143;28;46777;-61
2023/03/29 18:01:46;;;;;;;;;3.67;2.00;;;;;;;;4998477;28;45360;-61
2023/03/29 18:04:12;;;;;;;;;5.00;4.33;;;;;;;;4983008;28;45445;-62
2023/03/29 18:06:37;;;;;;;;;4.00;4.00;;;;;;;;5000517;28;45297;-61
2023/03/29 18:09:02;;;;;;;;;4.00;2.67;;;;;;;;4999602;28;46364;-61
2023/03/29 18:11:28;;;;;;;;;4.00;4.00;;;;;;;;4996098;28;45423;-64
2023/03/29 18:13:53;;;;;;;;;4.00;4.00;;;;;;;;4991855;28;45664;-63
2023/03/29 18:16:19;;;;;;;;;4.00;4.00;;;;;;;;4994107;28;45365;-62
2023/03/29 18:18:45;;;;;;;;;4.67;3.00;;;;;;;;4998446;28;45449;-61
2023/03/29 18:21:11;;;;;;;;;4.67;3.33;;;;;;;;4998063;28;45415;-61
2023/03/29 18:23:38;;;;;;;;;3.33;3.33;;;;;;;;4999490;28;45736;-61
2023/03/29 18:26:04;;;;;;;;;3.33;3.00;;;;;;;;4998312;28;45482;-61
2023/03/29 18:28:30;;;;;;;;;4.33;3.67;;;;;;;;4999436;28;46004;-62
2023/03/29 18:30:55;;;;;;;;;5.00;4.00;;;;;;;;4996468;28;45313;-61
2023/03/29 18:33:20;;;;;;;;;4.67;4.33;;;;;;;;4993341;28;45491;-61
2023/03/29 18:35:49;;;;;;;;;5.00;3.33;;;;;;;;4999965;28;45342;-61
2023/03/29 18:38:14;;;;;;;;;3.00;3.00;;;;;;;;4981619;28;46291;-61
2023/03/29 18:40:39;;;;;;;;;4.00;3.00;;;;;;;;4999395;28;45414;-61
2023/03/29 18:43:04;;;;;;;;;4.00;4.00;;;;;;;;4999812;28;45378;-61
2023/03/29 18:45:30;;;;;;;;;6.67;4.00;;;;;;;;4998327;28;45888;-61
2023/03/29 18:47:55;;;;;;;;;4.67;4.00;;;;;;;;4995876;28;45621;-61
2023/03/29 18:50:22;;;;;;;;;3.67;3.00;;;;;;;;5008914;28;45431;-62
2023/03/29 18:52:47;;;;;;;;;8.67;3.67;;;;;;;;5002646;28;45353;-62
2023/03/29 18:55:12;;;;;;;;;4.67;4.33;;;;;;;;4983330;28;45461;-62
2023/03/29 18:57:37;;;;;;;;;4.67;4.67;;;;;;;;4989353;28;46906;-62
2023/03/29 19:00:09;;;;;;;;;5.00;3.67;;;;;;;;5007216;28;45263;-62
2023/03/29 19:02:34;;;;;;;;;5.33;3.00;;;;;;;;5007649;28;45459;-62
2023/03/29 19:05:00;;;;;;;;;4.00;3.00;;;;;;;;4992013;28;45306;-62
2023/03/29 19:07:25;;;;;;;;;5.67;2.33;;;;;;;;4970392;28;46941;-62
2023/03/29 19:09:50;;;;;;;;;5.00;4.00;;;;;;;;4980846;28;46126;-62
2023/03/29 19:12:15;;;;;;;;;7.33;4.67;;;;;;;;4994314;28;45346;-62
2023/03/29 19:14:41;;;;;;;;;7.33;4.33;;;;;;;;4998479;28;45298;-62
2023/03/29 19:17:06;;;;;;;;;6.00;6.00;;;;;;;;4997519;28;46455;-63
2023/03/29 19:19:31;;;;;;;;;4.67;4.33;;;;;;;;4998289;28;45963;-62
2023/03/29 19:21:56;;;;;;;;;4.00;4.00;;;;;;;;4977746;28;45471;-62
2023/03/29 19:24:21;;;;;;;;;4.33;4.00;;;;;;;;4979991;28;45651;-62
2023/03/29 19:26:48;;;;;;;;;4.33;4.33;;;;;;;;4997856;28;45374;-62
2023/03/29 19:29:14;;;;;;;;;4.00;4.00;;;;;;;;4997070;28;45330;-62
2023/03/29 19:31:39;;;;;;;;;5.00;3.00;;;;;;;;4997745;28;45353;-62
2023/03/29 19:34:05;;;;;;;;;3.00;3.00;;;;;;;;4997615;28;45560;-62
2023/03/29 19:36:31;;;;;;;;;4.00;4.00;;;;;;;;4997820;28;46188;-62
2023/03/29 19:38:56;;;;;;;;;5.00;4.33;;;;;;;;4996676;28;45393;-62
2023/03/29 19:41:21;;;;;;;;;4.33;3.00;;;;;;;;5000994;28;45160;-62
2023/03/29 19:43:46;;;;;;;;;3.67;3.00;;;;;;;;4983828;28;45503;-62
2023/03/29 19:46:14;;;;;;;;;4.67;4.00;;;;;;;;4999852;28;45504;-62
2023/03/29 19:48:39;;;;;;;;;4.33;4.33;;;;;;;;5001404;28;45483;-62